Airfield :
LOGIN :

Register | Disclaimer

   EN    FR    IT 

 










Legend :    VFR   Marginal VFR   IFR   Intensive IFR   Very Intensive IFR
Visi :
Ceiling :
>= 8 km
>= 3000ft
5 to 8 km
1000 to 3000 ft
1500m to 5 km
500 to 1000 ft
800 to 1500m
200 to 500 ft
< 800m
< 200 ft
Symbols :   Thunderstorms  Fog  Heavy snow  Heavy precipitations  Wind > 20 kt
SIGMETs :     Misc.  Thunderstorms  Icing  Turbulence  Mountain Waves  Volcanic Ashes






- Airport Elevation : 74 ft
- IATA code : EIN


EHEH - Eindhoven

CURRENT METAR :
  • 281425Z AUTO 20016KT 180V240 9999 FEW028 BKN033 OVC038 13/07 Q1006 BLU NOSIG

EXPIRED METARs :
  • 281355Z AUTO 21014KT 190V250 9999 SCT030 BKN035 OVC041 14/07 Q1006 BLU NOSIG
  • 281325Z AUTO 22019G29KT 9999 FEW032 SCT042 OVC046 14/07 Q1006 BLU TEMPO 22016G30KT SCT020CB SCT030
  • 281255Z AUTO 21017KT 180V250 9999 SCT029 BKN032 OVC040 14/08 Q1007 BLU TEMPO 22016G30KT SCT020CB SCT030
  • 281225Z AUTO 22016KT 190V250 9999 FEW027 BKN030 BKN035 14/08 Q1007 BLU TEMPO 22016G30KT SCT020CB SCT030

TAF TAF EHEH
Valid from the 28 at 12:00 until the 29 at 18:00 UTC


281121Z 2812/2918 20015G25KT 9999 SCT025 SCT100
TEMPO 2812/2906 21016G28KT 4500 SHRA FEW016 SCT022CB BKN025
PROB30
TEMPO 2812/2824 22017G31KT 3000 TSRAGS SCT013 SCT020CB BKN022
BECMG 2903/2905 23010KT
BECMG 2912/2915 19008KT 7000 -RA BKN040 OVC050
TEMPO 2915/2918 4000 RA SCT012 BKN015 OVC020



MET'MAP, your aeronautical weather chart ! - Copyright ORBIFLY December 2007 - Disclaimer

ORBIFLY MET'MAP TEAM :

Programming & Development : Alexandra Zaïnal
Concept & original design : Baudouin d'Aumeries
Assistance for programming : Marc-Olivier Méhu
Technical & hardware support : Manuel Goepfert

Contact : metmap@orbifly.com




SOURCES & CREDITS :

   NOAA